Etusivu
METAR-TAF:

METAR-TAF

Lentoasemat :

Uumajan lentoasema

Umeå, Ruotsi

Leveyspiiri: 63-48N, Pituuspiiri: 020-17E, korkeus merenpinnasta: 7 m

Tämänhetkinen sää

Tämä raportti tehtiin 38 minuuttia sitten, kello 03.20 UTC
Tuuli 3 kn kaakosta
Lämpötila -1°C
Kosteus 100%
Ilmanpaine 1020 hPa
Näkyvyys 10 km tai enemmän
sumuhattaroita

METAR: ESNU 230320Z 14003KT 9999 BCFG NSC M01/M01 Q1020 R14/09//95

Aika: 05:58 (03:58 UTC)

Sääennuste

Tämä raportti tehtiin 1 tunti ja 28 minuuttia sitten, kello 02.30 UTC
Ennuste voimassa 23. päivästä klo 03 UTC - 23. päivään klo 12 UTC
Tuuli 2 kn etelästä/kaakosta
Näkyvyys: 0300 m
200 ft:n korkeudessa
jäätävää sumua
Tulossa
23. päivästä klo 03 UTC - 23. päivään klo 05 UTC
Näkyvyys 10 km tai enemmän
ei pilviä alle 1500 m:ssä eikä cumulonimbus-pilviä

TAF: ESNU 230230Z 2303/2312 15002KT 0300 FZFG VV002 BECMG 2303/2305 CAVOK

Säähavainnot ja -ennusteet yli 4000 lentoasemalta (METAR- ja TAF-raportit).

Käytössä olevat sääasemat on merkitty karttaan keltaisilla ja punaisilla pisteillä.

Aseta hiiri pisteen päälle nähdäksesi sääaseman nimen.

Klikkaa sitten nähdäksesi säähavainnot ja -ennusteet.

Kartan vaihtaminen: klikkaa mustalla rastilla varustettuja vihreitä pisteitä, niin voit zoomata sisään; viivalla varustettua vihreää pistettä, niin voit zoomata ulos tai vihreitä nuolia, niin pääset viereisille kartoille.


METAR-TAF: